Andrews, Indiana
Current Conditions -  °F | °C
As of 9:15 PM on Sunday 25 Jan 2015 (Local Time) from KHHG Reporting Station
Light Snow Light Snow  
Wind Chill:   Ceiling: 4400
Heat Index: 20°   Visibility: 5mi
Dew Point: 13°   Wind: 17mph
Humidity: 75%   Direction: 50°NE
Pressure: 29.88"   Gusts: 22mph
Location:  40.86°N, 85.6°W
Report Text: KHHG 260215Z AUTO 05015G19KT 5SM -SN SCT016 OVC044 M07/M10 A2988 RMK AO2 T10671104
Loading
Personal Weather Stations






























Interactive Weather Map New forecast layout! Learn more

10-Day Weather Forecast

Advertisements
Track Severe Weather on mobile